sensor_id;sensor_type;location;lat;lon;timestamp;P1;durP1;ratioP1;P2;durP2;ratioP2
11537;SDS011;50159;49.426;11.182;2022-12-18T00:01:29;14.20;;;11.80;;
11537;SDS011;50159;49.426;11.182;2022-12-18T00:04:01;29.20;;;14.83;;
11537;SDS011;50159;49.426;11.182;2022-12-18T00:06:32;23.83;;;13.37;;
11537;SDS011;50159;49.426;11.182;2022-12-18T00:09:02;22.80;;;12.27;;
11537;SDS011;50159;49.426;11.182;2022-12-18T00:11:30;28.20;;;13.60;;
11537;SDS011;50159;49.426;11.182;2022-12-18T00:13:58;19.63;;;12.17;;
11537;SDS011;50159;49.426;11.182;2022-12-18T00:16:26;20.60;;;12.33;;
11537;SDS011;50159;49.426;11.182;2022-12-18T00:18:55;23.60;;;12.67;;
11537;SDS011;50159;49.426;11.182;2022-12-18T00:21:24;22.77;;;12.70;;
11537;SDS011;50159;49.426;11.182;2022-12-18T00:23:52;22.80;;;14.03;;
11537;SDS011;50159;49.426;11.182;2022-12-18T00:26:20;18.73;;;13.20;;
11537;SDS011;50159;49.426;11.182;2022-12-18T00:28:53;21.03;;;11.90;;
11537;SDS011;50159;49.426;11.182;2022-12-18T00:31:23;20.13;;;13.10;;
11537;SDS011;50159;49.426;11.182;2022-12-18T00:33:51;23.33;;;13.47;;
11537;SDS011;50159;49.426;11.182;2022-12-18T00:36:23;20.37;;;12.60;;
11537;SDS011;50159;49.426;11.182;2022-12-18T00:38:54;15.83;;;12.10;;
11537;SDS011;50159;49.426;11.182;2022-12-18T00:41:22;16.50;;;11.80;;
11537;SDS011;50159;49.426;11.182;2022-12-18T00:44:10;18.73;;;13.20;;
11537;SDS011;50159;49.426;11.182;2022-12-18T00:46:40;15.30;;;10.73;;
11537;SDS011;50159;49.426;11.182;2022-12-18T00:49:07;25.30;;;12.70;;
11537;SDS011;50159;49.426;11.182;2022-12-18T00:51:34;27.33;;;14.73;;
11537;SDS011;50159;49.426;11.182;2022-12-18T00:54:01;28.53;;;14.97;;
11537;SDS011;50159;49.426;11.182;2022-12-18T00:56:28;25.33;;;15.67;;
11537;SDS011;50159;49.426;11.182;2022-12-18T00:58:55;20.67;;;13.37;;
11537;SDS011;50159;49.426;11.182;2022-12-18T01:01:22;14.37;;;11.03;;
11537;SDS011;50159;49.426;11.182;2022-12-18T01:03:49;16.70;;;12.83;;
11537;SDS011;50159;49.426;11.182;2022-12-18T01:06:16;19.83;;;11.47;;
11537;SDS011;50159;49.426;11.182;2022-12-18T01:08:43;14.60;;;10.67;;
11537;SDS011;50159;49.426;11.182;2022-12-18T01:11:11;16.67;;;11.97;;
11537;SDS011;50159;49.426;11.182;2022-12-18T01:13:43;13.33;;;11.13;;
11537;SDS011;50159;49.426;11.182;2022-12-18T01:16:11;18.30;;;11.47;;
11537;SDS011;50159;49.426;11.182;2022-12-18T01:18:40;24.77;;;13.13;;
11537;SDS011;50159;49.426;11.182;2022-12-18T01:21:08;22.57;;;11.83;;
11537;SDS011;50159;49.426;11.182;2022-12-18T01:23:38;19.50;;;11.47;;
11537;SDS011;50159;49.426;11.182;2022-12-18T01:26:11;22.23;;;10.10;;
11537;SDS011;50159;49.426;11.182;2022-12-18T01:28:42;17.20;;;10.80;;
11537;SDS011;50159;49.426;11.182;2022-12-18T01:31:17;17.13;;;12.23;;
11537;SDS011;50159;49.426;11.182;2022-12-18T01:33:51;15.50;;;10.73;;
11537;SDS011;50159;49.426;11.182;2022-12-18T01:36:23;15.87;;;11.23;;
11537;SDS011;50159;49.426;11.182;2022-12-18T01:38:55;12.90;;;10.30;;
11537;SDS011;50159;49.426;11.182;2022-12-18T01:41:23;19.73;;;11.83;;
11537;SDS011;50159;49.426;11.182;2022-12-18T01:47:41;20.87;;;11.87;;
11537;SDS011;50159;49.426;11.182;2022-12-18T01:50:36;29.20;;;12.67;;
11537;SDS011;50159;49.426;11.182;2022-12-18T01:53:19;19.67;;;11.60;;
11537;SDS011;50159;49.426;11.182;2022-12-18T01:55:50;16.87;;;11.03;;
11537;SDS011;50159;49.426;11.182;2022-12-18T01:58:22;15.73;;;12.23;;
11537;SDS011;50159;49.426;11.182;2022-12-18T02:01:29;14.23;;;10.80;;
11537;SDS011;50159;49.426;11.182;2022-12-18T02:04:13;14.67;;;10.60;;
11537;SDS011;50159;49.426;11.182;2022-12-18T02:06:51;18.07;;;10.53;;
11537;SDS011;50159;49.426;11.182;2022-12-18T02:12:39;14.33;;;10.73;;
11537;SDS011;50159;49.426;11.182;2022-12-18T02:15:25;19.13;;;10.23;;
11537;SDS011;50159;49.426;11.182;2022-12-18T02:18:19;11.13;;;9.17;;
11537;SDS011;50159;49.426;11.182;2022-12-18T02:20:59;13.33;;;9.23;;
11537;SDS011;50159;49.426;11.182;2022-12-18T02:23:47;13.33;;;8.90;;
11537;SDS011;50159;49.426;11.182;2022-12-18T02:26:37;10.53;;;8.00;;
11537;SDS011;50159;49.426;11.182;2022-12-18T02:29:18;20.37;;;10.90;;
11537;SDS011;50159;49.426;11.182;2022-12-18T02:31:54;13.40;;;10.63;;
11537;SDS011;50159;49.426;11.182;2022-12-18T02:34:31;11.47;;;9.33;;
11537;SDS011;50159;49.426;11.182;2022-12-18T02:37:05;12.07;;;9.60;;
11537;SDS011;50159;49.426;11.182;2022-12-18T02:39:45;21.97;;;10.83;;
11537;SDS011;50159;49.426;11.182;2022-12-18T02:42:15;12.80;;;9.43;;
11537;SDS011;50159;49.426;11.182;2022-12-18T02:44:47;20.80;;;11.63;;
11537;SDS011;50159;49.426;11.182;2022-12-18T02:47:17;12.87;;;9.70;;
11537;SDS011;50159;49.426;11.182;2022-12-18T02:50:04;21.53;;;11.77;;
11537;SDS011;50159;49.426;11.182;2022-12-18T02:52:50;18.43;;;11.70;;
11537;SDS011;50159;49.426;11.182;2022-12-18T02:58:34;14.40;;;10.40;;
11537;SDS011;50159;49.426;11.182;2022-12-18T03:01:26;10.00;;;8.83;;
11537;SDS011;50159;49.426;11.182;2022-12-18T03:04:14;17.10;;;10.20;;
11537;SDS011;50159;49.426;11.182;2022-12-18T03:06:56;13.17;;;10.13;;
11537;SDS011;50159;49.426;11.182;2022-12-18T03:09:33;16.47;;;8.93;;
11537;SDS011;50159;49.426;11.182;2022-12-18T03:12:07;11.10;;;8.87;;
11537;SDS011;50159;49.426;11.182;2022-12-18T03:17:44;10.70;;;9.53;;
11537;SDS011;50159;49.426;11.182;2022-12-18T03:20:19;18.87;;;9.37;;
11537;SDS011;50159;49.426;11.182;2022-12-18T03:22:51;11.43;;;8.13;;
11537;SDS011;50159;49.426;11.182;2022-12-18T03:25:25;14.63;;;9.70;;
11537;SDS011;50159;49.426;11.182;2022-12-18T03:27:56;19.90;;;9.50;;
11537;SDS011;50159;49.426;11.182;2022-12-18T03:30:28;19.40;;;9.67;;
11537;SDS011;50159;49.426;11.182;2022-12-18T03:33:05;18.53;;;9.97;;
11537;SDS011;50159;49.426;11.182;2022-12-18T03:35:41;18.63;;;9.47;;
11537;SDS011;50159;49.426;11.182;2022-12-18T03:38:10;18.13;;;10.57;;
11537;SDS011;50159;49.426;11.182;2022-12-18T03:43:30;15.93;;;9.80;;
11537;SDS011;50159;49.426;11.182;2022-12-18T03:46:11;15.53;;;9.87;;
11537;SDS011;50159;49.426;11.182;2022-12-18T03:48:59;14.57;;;9.33;;
11537;SDS011;50159;49.426;11.182;2022-12-18T03:51:44;20.93;;;10.27;;
11537;SDS011;50159;49.426;11.182;2022-12-18T03:54:23;11.33;;;9.30;;
11537;SDS011;50159;49.426;11.182;2022-12-18T03:56:56;16.33;;;10.90;;
11537;SDS011;50159;49.426;11.182;2022-12-18T03:59:36;17.93;;;11.23;;
11537;SDS011;50159;49.426;11.182;2022-12-18T04:02:05;14.67;;;10.03;;
11537;SDS011;50159;49.426;11.182;2022-12-18T04:04:35;11.60;;;10.03;;
11537;SDS011;50159;49.426;11.182;2022-12-18T04:07:04;17.33;;;10.33;;
11537;SDS011;50159;49.426;11.182;2022-12-18T04:09:32;18.07;;;11.00;;
11537;SDS011;50159;49.426;11.182;2022-12-18T04:12:02;22.10;;;11.03;;
11537;SDS011;50159;49.426;11.182;2022-12-18T04:14:30;17.67;;;10.97;;
11537;SDS011;50159;49.426;11.182;2022-12-18T04:17:02;16.80;;;10.00;;
11537;SDS011;50159;49.426;11.182;2022-12-18T04:19:29;13.83;;;9.10;;
11537;SDS011;50159;49.426;11.182;2022-12-18T04:21:56;12.87;;;10.13;;
11537;SDS011;50159;49.426;11.182;2022-12-18T04:24:22;16.93;;;9.87;;
11537;SDS011;50159;49.426;11.182;2022-12-18T04:26:49;14.80;;;9.83;;
11537;SDS011;50159;49.426;11.182;2022-12-18T04:29:16;18.97;;;10.07;;
11537;SDS011;50159;49.426;11.182;2022-12-18T04:31:43;14.77;;;10.37;;
11537;SDS011;50159;49.426;11.182;2022-12-18T04:34:09;13.53;;;10.03;;
11537;SDS011;50159;49.426;11.182;2022-12-18T04:36:36;16.33;;;10.43;;
11537;SDS011;50159;49.426;11.182;2022-12-18T04:39:03;17.03;;;11.17;;
11537;SDS011;50159;49.426;11.182;2022-12-18T04:41:29;16.90;;;10.93;;
11537;SDS011;50159;49.426;11.182;2022-12-18T04:43:56;14.87;;;10.30;;
11537;SDS011;50159;49.426;11.182;2022-12-18T04:46:23;20.27;;;11.23;;
11537;SDS011;50159;49.426;11.182;2022-12-18T04:48:50;18.77;;;10.97;;
11537;SDS011;50159;49.426;11.182;2022-12-18T04:51:16;16.93;;;10.63;;
11537;SDS011;50159;49.426;11.182;2022-12-18T04:53:51;14.23;;;9.87;;
11537;SDS011;50159;49.426;11.182;2022-12-18T04:56:18;21.50;;;10.23;;
11537;SDS011;50159;49.426;11.182;2022-12-18T04:58:45;16.40;;;10.40;;
11537;SDS011;50159;49.426;11.182;2022-12-18T05:01:12;14.87;;;10.33;;
11537;SDS011;50159;49.426;11.182;2022-12-18T05:03:42;20.57;;;10.60;;
11537;SDS011;50159;49.426;11.182;2022-12-18T05:06:10;15.37;;;10.17;;
11537;SDS011;50159;49.426;11.182;2022-12-18T05:08:37;15.67;;;10.60;;
11537;SDS011;50159;49.426;11.182;2022-12-18T05:11:04;14.50;;;9.93;;
11537;SDS011;50159;49.426;11.182;2022-12-18T05:13:34;16.93;;;11.33;;
11537;SDS011;50159;49.426;11.182;2022-12-18T05:16:03;13.27;;;10.40;;
11537;SDS011;50159;49.426;11.182;2022-12-18T05:18:31;22.63;;;11.97;;
11537;SDS011;50159;49.426;11.182;2022-12-18T05:20:58;19.10;;;10.43;;
11537;SDS011;50159;49.426;11.182;2022-12-18T05:23:25;18.87;;;12.50;;
11537;SDS011;50159;49.426;11.182;2022-12-18T05:25:53;15.27;;;10.27;;
11537;SDS011;50159;49.426;11.182;2022-12-18T05:28:24;18.17;;;10.47;;
11537;SDS011;50159;49.426;11.182;2022-12-18T05:30:55;19.57;;;10.83;;
11537;SDS011;50159;49.426;11.182;2022-12-18T05:33:26;21.53;;;12.13;;
11537;SDS011;50159;49.426;11.182;2022-12-18T05:35:57;20.07;;;12.00;;
11537;SDS011;50159;49.426;11.182;2022-12-18T05:38:27;18.63;;;10.33;;
11537;SDS011;50159;49.426;11.182;2022-12-18T05:40:56;23.77;;;11.80;;
11537;SDS011;50159;49.426;11.182;2022-12-18T05:43:25;17.13;;;9.27;;
11537;SDS011;50159;49.426;11.182;2022-12-18T05:45:53;20.67;;;12.80;;
11537;SDS011;50159;49.426;11.182;2022-12-18T05:48:20;21.20;;;10.93;;
11537;SDS011;50159;49.426;11.182;2022-12-18T05:50:48;25.73;;;13.00;;
11537;SDS011;50159;49.426;11.182;2022-12-18T05:53:17;19.40;;;12.00;;
11537;SDS011;50159;49.426;11.182;2022-12-18T05:55:46;18.17;;;11.30;;
11537;SDS011;50159;49.426;11.182;2022-12-18T05:58:13;25.43;;;12.37;;
11537;SDS011;50159;49.426;11.182;2022-12-18T06:00:42;27.60;;;13.70;;
11537;SDS011;50159;49.426;11.182;2022-12-18T06:03:11;29.00;;;13.93;;
11537;SDS011;50159;49.426;11.182;2022-12-18T06:05:41;30.87;;;14.63;;
11537;SDS011;50159;49.426;11.182;2022-12-18T06:08:11;25.70;;;14.23;;
11537;SDS011;50159;49.426;11.182;2022-12-18T06:10:39;26.90;;;13.93;;
11537;SDS011;50159;49.426;11.182;2022-12-18T06:13:07;23.57;;;13.60;;
11537;SDS011;50159;49.426;11.182;2022-12-18T06:15:37;38.20;;;15.47;;
11537;SDS011;50159;49.426;11.182;2022-12-18T06:18:04;24.37;;;13.70;;
11537;SDS011;50159;49.426;11.182;2022-12-18T06:20:31;29.07;;;15.17;;
11537;SDS011;50159;49.426;11.182;2022-12-18T06:22:59;26.90;;;14.63;;
11537;SDS011;50159;49.426;11.182;2022-12-18T06:25:26;34.63;;;14.90;;
11537;SDS011;50159;49.426;11.182;2022-12-18T06:27:53;33.30;;;15.13;;
11537;SDS011;50159;49.426;11.182;2022-12-18T06:30:19;32.60;;;15.03;;
11537;SDS011;50159;49.426;11.182;2022-12-18T06:32:47;30.00;;;13.93;;
11537;SDS011;50159;49.426;11.182;2022-12-18T06:35:21;33.97;;;15.47;;
11537;SDS011;50159;49.426;11.182;2022-12-18T06:37:48;33.50;;;15.83;;
11537;SDS011;50159;49.426;11.182;2022-12-18T06:40:15;29.57;;;14.57;;
11537;SDS011;50159;49.426;11.182;2022-12-18T06:42:42;29.67;;;15.70;;
11537;SDS011;50159;49.426;11.182;2022-12-18T06:45:09;36.53;;;16.60;;
11537;SDS011;50159;49.426;11.182;2022-12-18T06:47:37;31.90;;;15.13;;
11537;SDS011;50159;49.426;11.182;2022-12-18T06:50:04;29.40;;;16.00;;
11537;SDS011;50159;49.426;11.182;2022-12-18T06:52:31;25.97;;;14.93;;
11537;SDS011;50159;49.426;11.182;2022-12-18T06:54:59;27.97;;;15.47;;
11537;SDS011;50159;49.426;11.182;2022-12-18T06:57:26;25.77;;;15.77;;
11537;SDS011;50159;49.426;11.182;2022-12-18T06:59:53;29.27;;;15.73;;
11537;SDS011;50159;49.426;11.182;2022-12-18T07:02:20;38.00;;;17.23;;
11537;SDS011;50159;49.426;11.182;2022-12-18T07:04:49;35.60;;;17.30;;
11537;SDS011;50159;49.426;11.182;2022-12-18T07:07:16;26.80;;;14.67;;
11537;SDS011;50159;49.426;11.182;2022-12-18T07:09:43;34.10;;;15.90;;
11537;SDS011;50159;49.426;11.182;2022-12-18T07:12:09;34.40;;;17.03;;
11537;SDS011;50159;49.426;11.182;2022-12-18T07:14:36;39.03;;;17.00;;
11537;SDS011;50159;49.426;11.182;2022-12-18T07:17:03;35.70;;;17.93;;
11537;SDS011;50159;49.426;11.182;2022-12-18T07:19:31;37.53;;;16.07;;
11537;SDS011;50159;49.426;11.182;2022-12-18T07:21:58;33.83;;;16.20;;
11537;SDS011;50159;49.426;11.182;2022-12-18T07:24:26;37.33;;;16.40;;
11537;SDS011;50159;49.426;11.182;2022-12-18T07:26:53;39.77;;;18.93;;
11537;SDS011;50159;49.426;11.182;2022-12-18T07:29:20;35.23;;;17.40;;
11537;SDS011;50159;49.426;11.182;2022-12-18T07:31:47;37.23;;;17.47;;
11537;SDS011;50159;49.426;11.182;2022-12-18T07:34:14;40.83;;;17.07;;
11537;SDS011;50159;49.426;11.182;2022-12-18T07:36:41;36.87;;;17.37;;
11537;SDS011;50159;49.426;11.182;2022-12-18T07:39:08;34.67;;;16.17;;
11537;SDS011;50159;49.426;11.182;2022-12-18T07:41:37;38.57;;;17.50;;
11537;SDS011;50159;49.426;11.182;2022-12-18T07:44:12;37.07;;;17.83;;
11537;SDS011;50159;49.426;11.182;2022-12-18T07:46:39;34.87;;;16.27;;
11537;SDS011;50159;49.426;11.182;2022-12-18T07:49:05;32.67;;;15.70;;
11537;SDS011;50159;49.426;11.182;2022-12-18T07:51:32;33.73;;;16.37;;
11537;SDS011;50159;49.426;11.182;2022-12-18T07:53:59;31.50;;;14.93;;
11537;SDS011;50159;49.426;11.182;2022-12-18T07:56:26;30.07;;;14.77;;
11537;SDS011;50159;49.426;11.182;2022-12-18T07:58:55;36.40;;;16.70;;
11537;SDS011;50159;49.426;11.182;2022-12-18T08:01:22;31.87;;;16.37;;
11537;SDS011;50159;49.426;11.182;2022-12-18T08:03:49;31.43;;;15.17;;
11537;SDS011;50159;49.426;11.182;2022-12-18T08:06:17;42.57;;;16.90;;
11537;SDS011;50159;49.426;11.182;2022-12-18T08:08:47;35.07;;;16.70;;
11537;SDS011;50159;49.426;11.182;2022-12-18T08:11:15;36.47;;;16.97;;
11537;SDS011;50159;49.426;11.182;2022-12-18T08:13:41;39.63;;;16.30;;
11537;SDS011;50159;49.426;11.182;2022-12-18T08:16:08;40.73;;;17.50;;
11537;SDS011;50159;49.426;11.182;2022-12-18T08:18:36;35.43;;;17.23;;
11537;SDS011;50159;49.426;11.182;2022-12-18T08:21:07;36.50;;;16.93;;
11537;SDS011;50159;49.426;11.182;2022-12-18T08:23:48;32.90;;;15.00;;
11537;SDS011;50159;49.426;11.182;2022-12-18T08:26:17;33.40;;;15.80;;
11537;SDS011;50159;49.426;11.182;2022-12-18T08:28:46;29.33;;;14.93;;
11537;SDS011;50159;49.426;11.182;2022-12-18T08:31:13;32.53;;;16.83;;
11537;SDS011;50159;49.426;11.182;2022-12-18T08:33:40;29.97;;;16.23;;
11537;SDS011;50159;49.426;11.182;2022-12-18T08:36:08;32.37;;;14.80;;
11537;SDS011;50159;49.426;11.182;2022-12-18T08:38:36;33.33;;;15.20;;
11537;SDS011;50159;49.426;11.182;2022-12-18T08:41:06;30.50;;;16.47;;
11537;SDS011;50159;49.426;11.182;2022-12-18T08:43:36;28.10;;;14.67;;
11537;SDS011;50159;49.426;11.182;2022-12-18T08:46:23;33.30;;;15.03;;
11537;SDS011;50159;49.426;11.182;2022-12-18T08:48:52;29.37;;;14.87;;
11537;SDS011;50159;49.426;11.182;2022-12-18T08:51:21;33.07;;;15.53;;
11537;SDS011;50159;49.426;11.182;2022-12-18T08:53:48;25.50;;;15.43;;
11537;SDS011;50159;49.426;11.182;2022-12-18T08:56:15;28.67;;;15.73;;
11537;SDS011;50159;49.426;11.182;2022-12-18T08:58:42;29.77;;;14.90;;
11537;SDS011;50159;49.426;11.182;2022-12-18T09:01:10;27.90;;;15.13;;
11537;SDS011;50159;49.426;11.182;2022-12-18T09:03:38;28.87;;;14.87;;
11537;SDS011;50159;49.426;11.182;2022-12-18T09:06:06;31.87;;;14.77;;
11537;SDS011;50159;49.426;11.182;2022-12-18T09:08:34;25.13;;;13.27;;
11537;SDS011;50159;49.426;11.182;2022-12-18T09:11:01;25.50;;;14.70;;
11537;SDS011;50159;49.426;11.182;2022-12-18T09:13:28;24.50;;;14.10;;
11537;SDS011;50159;49.426;11.182;2022-12-18T09:15:55;26.27;;;14.07;;
11537;SDS011;50159;49.426;11.182;2022-12-18T09:18:22;23.43;;;13.50;;
11537;SDS011;50159;49.426;11.182;2022-12-18T09:20:50;28.63;;;12.83;;
11537;SDS011;50159;49.426;11.182;2022-12-18T09:23:19;27.93;;;14.30;;
11537;SDS011;50159;49.426;11.182;2022-12-18T09:25:48;31.50;;;14.77;;
11537;SDS011;50159;49.426;11.182;2022-12-18T09:28:16;21.07;;;12.97;;
11537;SDS011;50159;49.426;11.182;2022-12-18T09:30:46;24.37;;;14.87;;
11537;SDS011;50159;49.426;11.182;2022-12-18T09:33:15;28.40;;;14.10;;
11537;SDS011;50159;49.426;11.182;2022-12-18T09:35:43;25.97;;;14.47;;
11537;SDS011;50159;49.426;11.182;2022-12-18T09:38:15;28.57;;;14.53;;
11537;SDS011;50159;49.426;11.182;2022-12-18T09:40:46;34.47;;;15.57;;
11537;SDS011;50159;49.426;11.182;2022-12-18T09:43:33;25.07;;;14.70;;
11537;SDS011;50159;49.426;11.182;2022-12-18T09:46:10;25.80;;;13.87;;
11537;SDS011;50159;49.426;11.182;2022-12-18T09:48:46;26.77;;;14.03;;
11537;SDS011;50159;49.426;11.182;2022-12-18T09:51:19;23.83;;;14.60;;
11537;SDS011;50159;49.426;11.182;2022-12-18T09:53:56;28.63;;;14.40;;
11537;SDS011;50159;49.426;11.182;2022-12-18T09:56:29;21.43;;;13.33;;
11537;SDS011;50159;49.426;11.182;2022-12-18T09:59:03;26.57;;;14.33;;
11537;SDS011;50159;49.426;11.182;2022-12-18T10:01:31;25.47;;;13.77;;
11537;SDS011;50159;49.426;11.182;2022-12-18T10:04:09;23.30;;;13.40;;
11537;SDS011;50159;49.426;11.182;2022-12-18T10:06:54;19.83;;;11.77;;
11537;SDS011;50159;49.426;11.182;2022-12-18T10:09:37;19.73;;;11.93;;
11537;SDS011;50159;49.426;11.182;2022-12-18T10:18:34;21.33;;;12.97;;
11537;SDS011;50159;49.426;11.182;2022-12-18T10:21:32;24.83;;;13.30;;
11537;SDS011;50159;49.426;11.182;2022-12-18T10:24:22;24.53;;;12.30;;
11537;SDS011;50159;49.426;11.182;2022-12-18T10:27:16;20.97;;;11.37;;
11537;SDS011;50159;49.426;11.182;2022-12-18T10:29:47;21.47;;;12.53;;
11537;SDS011;50159;49.426;11.182;2022-12-18T10:32:19;24.73;;;12.93;;
11537;SDS011;50159;49.426;11.182;2022-12-18T10:34:57;19.63;;;11.50;;
11537;SDS011;50159;49.426;11.182;2022-12-18T10:37:29;25.30;;;12.93;;
11537;SDS011;50159;49.426;11.182;2022-12-18T10:40:10;20.07;;;12.13;;
11537;SDS011;50159;49.426;11.182;2022-12-18T10:42:55;24.57;;;14.13;;
11537;SDS011;50159;49.426;11.182;2022-12-18T10:45:41;29.10;;;14.07;;
11537;SDS011;50159;49.426;11.182;2022-12-18T10:48:23;25.33;;;13.20;;
11537;SDS011;50159;49.426;11.182;2022-12-18T10:50:51;24.00;;;14.00;;
11537;SDS011;50159;49.426;11.182;2022-12-18T10:53:38;22.17;;;13.23;;
11537;SDS011;50159;49.426;11.182;2022-12-18T10:56:08;25.20;;;14.40;;
11537;SDS011;50159;49.426;11.182;2022-12-18T10:58:36;28.27;;;14.57;;
11537;SDS011;50159;49.426;11.182;2022-12-18T11:01:16;24.23;;;14.13;;
11537;SDS011;50159;49.426;11.182;2022-12-18T11:03:46;30.50;;;16.07;;
11537;SDS011;50159;49.426;11.182;2022-12-18T11:06:28;27.57;;;15.73;;
11537;SDS011;50159;49.426;11.182;2022-12-18T11:09:03;27.70;;;15.23;;
11537;SDS011;50159;49.426;11.182;2022-12-18T11:11:48;28.70;;;15.03;;
11537;SDS011;50159;49.426;11.182;2022-12-18T11:14:25;33.07;;;15.50;;
11537;SDS011;50159;49.426;11.182;2022-12-18T11:16:55;33.37;;;16.97;;
11537;SDS011;50159;49.426;11.182;2022-12-18T11:19:44;30.80;;;16.83;;
11537;SDS011;50159;49.426;11.182;2022-12-18T11:22:21;34.17;;;17.43;;
11537;SDS011;50159;49.426;11.182;2022-12-18T11:25:00;28.77;;;16.27;;
11537;SDS011;50159;49.426;11.182;2022-12-18T11:27:54;30.93;;;16.53;;
11537;SDS011;50159;49.426;11.182;2022-12-18T11:30:28;26.60;;;14.80;;
11537;SDS011;50159;49.426;11.182;2022-12-18T11:35:39;27.40;;;15.47;;
11537;SDS011;50159;49.426;11.182;2022-12-18T11:38:22;31.20;;;15.90;;
11537;SDS011;50159;49.426;11.182;2022-12-18T11:43:40;29.03;;;16.03;;
11537;SDS011;50159;49.426;11.182;2022-12-18T11:46:26;27.40;;;15.63;;
11537;SDS011;50159;49.426;11.182;2022-12-18T11:49:15;27.20;;;15.63;;
11537;SDS011;50159;49.426;11.182;2022-12-18T11:51:56;29.20;;;16.07;;
11537;SDS011;50159;49.426;11.182;2022-12-18T11:54:52;26.20;;;14.57;;
11537;SDS011;50159;49.426;11.182;2022-12-18T11:57:31;23.23;;;13.20;;
11537;SDS011;50159;49.426;11.182;2022-12-18T12:00:23;27.27;;;14.13;;
11537;SDS011;50159;49.426;11.182;2022-12-18T12:11:33;29.30;;;15.03;;
11537;SDS011;50159;49.426;11.182;2022-12-18T12:14:17;26.40;;;14.77;;
11537;SDS011;50159;49.426;11.182;2022-12-18T12:31:40;23.63;;;14.53;;
11537;SDS011;50159;49.426;11.182;2022-12-18T12:34:34;31.30;;;15.43;;
11537;SDS011;50159;49.426;11.182;2022-12-18T12:40:26;25.03;;;15.27;;
11537;SDS011;50159;49.426;11.182;2022-12-18T12:46:17;28.93;;;16.53;;
11537;SDS011;50159;49.426;11.182;2022-12-18T12:48:49;25.37;;;15.80;;
11537;SDS011;50159;49.426;11.182;2022-12-18T12:51:36;27.57;;;15.33;;
11537;SDS011;50159;49.426;11.182;2022-12-18T12:54:12;23.73;;;14.93;;
11537;SDS011;50159;49.426;11.182;2022-12-18T12:57:01;26.17;;;15.27;;
11537;SDS011;50159;49.426;11.182;2022-12-18T12:59:47;26.00;;;15.77;;
11537;SDS011;50159;49.426;11.182;2022-12-18T13:02:37;26.07;;;14.53;;
11537;SDS011;50159;49.426;11.182;2022-12-18T13:05:21;22.47;;;14.47;;
11537;SDS011;50159;49.426;11.182;2022-12-18T13:08:02;28.83;;;16.77;;
11537;SDS011;50159;49.426;11.182;2022-12-18T13:10:37;27.40;;;15.83;;
11537;SDS011;50159;49.426;11.182;2022-12-18T13:13:14;23.67;;;14.83;;
11537;SDS011;50159;49.426;11.182;2022-12-18T13:16:05;22.53;;;14.77;;
11537;SDS011;50159;49.426;11.182;2022-12-18T13:18:34;25.20;;;15.33;;
11537;SDS011;50159;49.426;11.182;2022-12-18T13:21:04;19.10;;;13.03;;
11537;SDS011;50159;49.426;11.182;2022-12-18T13:23:55;22.20;;;14.23;;
11537;SDS011;50159;49.426;11.182;2022-12-18T13:28:55;22.80;;;13.90;;
11537;SDS011;50159;49.426;11.182;2022-12-18T13:34:14;22.90;;;13.70;;
11537;SDS011;50159;49.426;11.182;2022-12-18T13:36:55;27.13;;;14.60;;
11537;SDS011;50159;49.426;11.182;2022-12-18T13:39:58;23.90;;;14.27;;
11537;SDS011;50159;49.426;11.182;2022-12-18T13:42:31;22.10;;;13.20;;
11537;SDS011;50159;49.426;11.182;2022-12-18T13:45:36;25.87;;;15.47;;
11537;SDS011;50159;49.426;11.182;2022-12-18T13:48:26;27.23;;;15.50;;
11537;SDS011;50159;49.426;11.182;2022-12-18T13:50:59;22.73;;;14.03;;
11537;SDS011;50159;49.426;11.182;2022-12-18T13:53:54;22.90;;;12.20;;
11537;SDS011;50159;49.426;11.182;2022-12-18T13:56:45;24.03;;;12.63;;
11537;SDS011;50159;49.426;11.182;2022-12-18T13:59:19;19.13;;;12.37;;
11537;SDS011;50159;49.426;11.182;2022-12-18T14:01:54;20.13;;;12.20;;
11537;SDS011;50159;49.426;11.182;2022-12-18T14:04:32;22.93;;;13.20;;
11537;SDS011;50159;49.426;11.182;2022-12-18T14:07:03;22.50;;;12.80;;
11537;SDS011;50159;49.426;11.182;2022-12-18T14:09:35;22.90;;;12.70;;
11537;SDS011;50159;49.426;11.182;2022-12-18T14:12:21;25.20;;;12.90;;
11537;SDS011;50159;49.426;11.182;2022-12-18T14:15:32;22.20;;;12.13;;
11537;SDS011;50159;49.426;11.182;2022-12-18T14:18:22;20.63;;;12.73;;
11537;SDS011;50159;49.426;11.182;2022-12-18T14:20:50;28.93;;;14.10;;
11537;SDS011;50159;49.426;11.182;2022-12-18T14:23:31;24.13;;;12.57;;
11537;SDS011;50159;49.426;11.182;2022-12-18T14:26:20;19.63;;;12.50;;
11537;SDS011;50159;49.426;11.182;2022-12-18T14:28:58;20.73;;;13.90;;
11537;SDS011;50159;49.426;11.182;2022-12-18T14:31:43;21.73;;;12.57;;
11537;SDS011;50159;49.426;11.182;2022-12-18T14:34:16;24.23;;;12.73;;
11537;SDS011;50159;49.426;11.182;2022-12-18T14:36:51;21.13;;;12.00;;
11537;SDS011;50159;49.426;11.182;2022-12-18T14:39:21;19.30;;;12.50;;
11537;SDS011;50159;49.426;11.182;2022-12-18T14:41:49;23.43;;;12.97;;
11537;SDS011;50159;49.426;11.182;2022-12-18T14:44:16;22.60;;;12.47;;
11537;SDS011;50159;49.426;11.182;2022-12-18T14:46:46;21.37;;;13.70;;
11537;SDS011;50159;49.426;11.182;2022-12-18T14:49:31;25.83;;;16.23;;
11537;SDS011;50159;49.426;11.182;2022-12-18T14:52:03;30.60;;;16.90;;
11537;SDS011;50159;49.426;11.182;2022-12-18T14:54:45;21.73;;;13.90;;
11537;SDS011;50159;49.426;11.182;2022-12-18T14:57:29;23.23;;;13.93;;
11537;SDS011;50159;49.426;11.182;2022-12-18T15:00:04;24.97;;;14.70;;
11537;SDS011;50159;49.426;11.182;2022-12-18T15:02:34;24.13;;;14.37;;
11537;SDS011;50159;49.426;11.182;2022-12-18T15:05:04;22.37;;;15.07;;
11537;SDS011;50159;49.426;11.182;2022-12-18T15:07:51;29.43;;;16.33;;
11537;SDS011;50159;49.426;11.182;2022-12-18T15:10:21;24.37;;;14.10;;
11537;SDS011;50159;49.426;11.182;2022-12-18T15:20:43;23.67;;;13.90;;
11537;SDS011;50159;49.426;11.182;2022-12-18T15:23:24;27.87;;;15.33;;
11537;SDS011;50159;49.426;11.182;2022-12-18T15:26:02;22.13;;;13.90;;
11537;SDS011;50159;49.426;11.182;2022-12-18T15:28:54;27.33;;;13.00;;
11537;SDS011;50159;49.426;11.182;2022-12-18T15:31:34;21.60;;;13.50;;
11537;SDS011;50159;49.426;11.182;2022-12-18T15:36:33;25.43;;;15.37;;
11537;SDS011;50159;49.426;11.182;2022-12-18T15:39:04;25.03;;;14.20;;
11537;SDS011;50159;49.426;11.182;2022-12-18T15:41:32;25.33;;;15.23;;
11537;SDS011;50159;49.426;11.182;2022-12-18T15:44:02;25.03;;;14.37;;
11537;SDS011;50159;49.426;11.182;2022-12-18T15:46:48;21.83;;;13.53;;
11537;SDS011;50159;49.426;11.182;2022-12-18T15:49:14;22.30;;;14.00;;
11537;SDS011;50159;49.426;11.182;2022-12-18T15:51:41;23.97;;;15.23;;
11537;SDS011;50159;49.426;11.182;2022-12-18T15:54:11;30.27;;;16.60;;
11537;SDS011;50159;49.426;11.182;2022-12-18T15:56:42;30.67;;;16.93;;
11537;SDS011;50159;49.426;11.182;2022-12-18T15:59:27;32.47;;;16.07;;
11537;SDS011;50159;49.426;11.182;2022-12-18T16:01:56;32.43;;;16.73;;